createdAt,value
2018-12-19T05:07:24.674Z,18.90
2018-12-19T05:09:50.882Z,18.90
2018-12-19T05:12:17.862Z,18.90
2018-12-19T05:14:44.065Z,19.00
2018-12-19T05:17:10.336Z,19.00
2018-12-19T05:19:36.931Z,19.00
2018-12-19T05:22:04.145Z,19.00
2018-12-19T05:24:30.349Z,19.00
2018-12-19T05:26:56.578Z,19.00
2018-12-19T05:29:23.080Z,19.00
2018-12-19T05:31:49.315Z,19.00
2018-12-19T05:34:15.656Z,19.00
2018-12-19T05:36:41.953Z,19.00
2018-12-19T05:39:08.953Z,19.00
2018-12-19T05:41:36.573Z,19.00
2018-12-19T05:44:03.210Z,19.00
2018-12-19T05:46:29.447Z,19.00
2018-12-19T05:48:56.036Z,19.00
2018-12-19T05:51:22.269Z,19.00
2018-12-19T05:53:48.472Z,19.00
2018-12-19T05:56:14.750Z,19.00
2018-12-19T05:58:40.948Z,19.00
2018-12-19T06:01:07.156Z,19.00
2018-12-19T06:03:33.418Z,19.00
2018-12-19T06:06:00.691Z,19.00
2018-12-19T06:08:26.938Z,19.00
2018-12-19T06:10:53.200Z,19.00
2018-12-19T06:13:19.433Z,19.00
2018-12-19T06:15:45.635Z,19.00
2018-12-19T06:18:11.890Z,19.00
2018-12-19T06:20:38.087Z,19.00
2018-12-19T06:23:04.889Z,19.00
2018-12-19T06:25:31.800Z,19.00
2018-12-19T06:27:58.038Z,19.00
2018-12-19T06:30:24.253Z,19.00
2018-12-19T06:32:50.500Z,19.00
2018-12-19T06:35:16.711Z,19.00
2018-12-19T06:37:42.970Z,19.00
2018-12-19T06:40:09.174Z,19.00
2018-12-19T06:42:35.407Z,19.00
2018-12-19T06:45:01.632Z,19.00
2018-12-19T06:47:27.878Z,19.00
2018-12-19T06:49:54.363Z,19.00
2018-12-19T06:52:21.344Z,19.00
2018-12-19T06:54:47.550Z,19.00
2018-12-19T06:57:14.382Z,19.00
2018-12-19T06:59:41.000Z,19.00
2018-12-19T07:02:07.474Z,19.00
2018-12-19T07:04:34.082Z,19.00
2018-12-19T07:07:00.355Z,19.00
2018-12-19T07:09:26.558Z,19.00
2018-12-19T07:11:52.926Z,19.00
2018-12-19T07:14:19.584Z,19.00
2018-12-19T07:16:45.817Z,19.00
2018-12-19T07:19:12.041Z,19.00
2018-12-19T07:21:38.257Z,19.00
2018-12-19T07:24:05.454Z,19.00
2018-12-19T07:26:32.422Z,19.00
2018-12-19T07:28:59.063Z,19.00
2018-12-19T07:31:25.357Z,19.00
2018-12-19T07:33:52.349Z,19.00
2018-12-19T07:36:18.838Z,19.00
2018-12-19T07:38:46.015Z,19.00
2018-12-19T07:41:12.239Z,19.00
2018-12-19T07:43:38.454Z,19.00
2018-12-19T07:46:04.662Z,19.00
2018-12-19T07:48:30.896Z,19.00
2018-12-19T07:50:57.115Z,19.00
2018-12-19T07:53:23.395Z,19.00
2018-12-19T07:55:49.626Z,19.00
2018-12-19T07:58:15.859Z,19.00
2018-12-19T08:00:42.211Z,19.00
2018-12-19T08:03:09.144Z,19.00
2018-12-19T08:05:35.728Z,19.00
2018-12-19T08:08:01.981Z,19.00
2018-12-19T08:10:28.206Z,19.00
2018-12-19T08:12:54.448Z,19.00
2018-12-19T08:15:21.671Z,19.00
2018-12-19T08:17:48.608Z,19.00
2018-12-19T08:20:14.863Z,19.00
2018-12-19T08:22:41.093Z,19.00
2018-12-19T08:25:08.365Z,19.00
2018-12-19T08:27:34.574Z,19.00
2018-12-19T08:30:00.828Z,19.00
2018-12-19T08:32:27.845Z,19.00
2018-12-19T08:34:54.373Z,19.10
2018-12-19T08:37:20.615Z,19.10
2018-12-19T08:39:47.059Z,19.10
2018-12-19T08:42:13.269Z,19.10
2018-12-19T08:44:40.238Z,19.10
2018-12-19T08:47:06.456Z,19.10
2018-12-19T08:49:33.278Z,19.10
2018-12-19T08:51:59.484Z,19.10
2018-12-19T08:54:26.048Z,19.10
2018-12-19T08:56:52.264Z,19.10
2018-12-19T08:59:18.813Z,19.10
2018-12-19T09:01:45.016Z,19.10
2018-12-19T09:04:11.267Z,19.10
2018-12-19T09:06:37.696Z,19.10
2018-12-19T09:09:03.946Z,19.10
2018-12-19T09:11:30.901Z,19.10
2018-12-19T09:13:57.149Z,19.10
2018-12-19T09:16:23.357Z,19.10
2018-12-19T09:18:49.612Z,19.10
2018-12-19T09:21:15.837Z,19.00
2018-12-19T09:23:42.112Z,19.00
2018-12-19T09:26:08.308Z,19.10
2018-12-19T09:28:34.551Z,19.10
2018-12-19T09:31:00.781Z,19.10
2018-12-19T09:33:27.583Z,19.10
2018-12-19T09:35:54.522Z,19.10
2018-12-19T09:38:20.731Z,19.10
2018-12-19T09:40:47.560Z,19.10
2018-12-19T09:43:13.776Z,19.20
2018-12-19T09:45:41.031Z,19.30
2018-12-19T09:48:07.221Z,19.30
2018-12-19T09:50:33.468Z,19.30
2018-12-19T09:52:59.681Z,19.40
2018-12-19T09:55:26.318Z,19.40
2018-12-19T09:57:53.551Z,19.40
2018-12-19T10:00:20.223Z,19.40
2018-12-19T10:02:47.092Z,19.00
2018-12-19T10:05:14.110Z,18.50
2018-12-19T10:07:41.226Z,18.40
2018-12-19T10:10:08.348Z,18.50
2018-12-19T10:12:34.570Z,18.50
2018-12-19T10:15:00.922Z,18.50
2018-12-19T10:17:28.110Z,18.40
2018-12-19T10:19:54.529Z,18.30
2018-12-19T10:22:21.381Z,18.20
2018-12-19T10:24:47.979Z,18.30
2018-12-19T10:27:17.578Z,18.60
2018-12-19T10:29:44.836Z,18.80
2018-12-19T10:32:11.667Z,19.00
2018-12-19T10:34:38.641Z,19.10
2018-12-19T10:37:04.984Z,19.20
2018-12-19T10:39:32.236Z,19.30
2018-12-19T10:41:58.458Z,19.30
2018-12-19T10:44:25.762Z,19.40
2018-12-19T10:46:51.997Z,19.50
2018-12-19T10:49:18.216Z,19.50
2018-12-19T10:51:44.645Z,19.60
2018-12-19T10:54:10.852Z,19.60
2018-12-19T10:56:38.225Z,19.50
2018-12-19T10:59:04.491Z,19.60
2018-12-19T11:01:31.594Z,19.50
2018-12-19T11:03:58.409Z,19.50
2018-12-19T11:06:24.628Z,19.50
2018-12-19T11:08:51.244Z,19.50
2018-12-19T11:11:17.474Z,19.50
2018-12-19T11:13:43.676Z,19.60
2018-12-19T11:16:10.313Z,19.60
2018-12-19T11:18:37.415Z,19.60
2018-12-19T11:21:03.628Z,19.60
2018-12-19T11:23:29.897Z,19.60
2018-12-19T11:25:56.109Z,19.70
2018-12-19T11:28:23.435Z,19.70
2018-12-19T11:30:50.129Z,19.70
2018-12-19T11:33:16.946Z,19.80
2018-12-19T11:35:43.387Z,19.90
2018-12-19T11:38:10.033Z,19.90
2018-12-19T11:40:36.626Z,19.90
2018-12-19T11:43:03.725Z,19.80
2018-12-19T11:45:29.924Z,19.90
2018-12-19T11:47:56.196Z,19.90
2018-12-19T11:50:22.386Z,20.00
2018-12-19T11:52:48.637Z,20.00
2018-12-19T11:55:15.523Z,19.90
2018-12-19T11:57:41.771Z,19.90
2018-12-19T12:00:07.999Z,19.90
2018-12-19T12:02:34.226Z,19.90
2018-12-19T12:05:00.428Z,19.80
2018-12-19T12:07:26.650Z,19.80
2018-12-19T12:09:52.857Z,19.80
2018-12-19T12:12:19.086Z,19.80
2018-12-19T12:14:45.312Z,19.80
2018-12-19T12:17:12.264Z,19.80
2018-12-19T12:19:38.488Z,19.80
2018-12-19T12:22:04.725Z,19.90
2018-12-19T12:24:31.173Z,19.90
2018-12-19T12:26:57.837Z,19.90
2018-12-19T12:29:24.090Z,19.90
2018-12-19T12:31:50.642Z,19.90
2018-12-19T12:34:16.906Z,19.90
2018-12-19T12:36:43.121Z,19.90
2018-12-19T12:39:09.371Z,19.90
2018-12-19T12:41:35.598Z,19.90
2018-12-19T12:44:01.863Z,19.90
2018-12-19T12:46:28.074Z,19.90
2018-12-19T12:48:54.289Z,19.90
2018-12-19T12:51:20.704Z,20.00
2018-12-19T12:53:47.348Z,20.00
2018-12-19T12:56:13.574Z,20.00
2018-12-19T12:58:40.973Z,20.00
2018-12-19T13:01:07.676Z,20.00
2018-12-19T13:03:33.931Z,20.00
2018-12-19T13:06:00.127Z,20.00
2018-12-19T13:08:27.212Z,20.00
2018-12-19T13:10:53.432Z,20.00
2018-12-19T13:13:19.653Z,20.00
2018-12-19T13:15:45.851Z,20.00
2018-12-19T13:18:12.130Z,20.00
2018-12-19T13:20:38.348Z,20.00
2018-12-19T13:23:05.201Z,20.00
2018-12-19T13:25:31.783Z,20.00
2018-12-19T13:27:58.028Z,20.00
2018-12-19T13:30:24.244Z,20.00
2018-12-19T13:32:51.444Z,20.00
2018-12-19T13:35:18.285Z,20.00
2018-12-19T13:37:45.202Z,20.00
2018-12-19T13:40:12.054Z,20.00
2018-12-19T13:42:39.438Z,20.00
2018-12-19T13:45:06.620Z,20.00
2018-12-19T13:47:33.581Z,20.00
2018-12-19T13:49:59.836Z,20.00
2018-12-19T13:52:27.108Z,20.00
2018-12-19T13:54:53.345Z,20.10
2018-12-19T13:57:19.564Z,20.10
2018-12-19T13:59:45.800Z,20.10
2018-12-19T14:02:12.070Z,20.10
2018-12-19T14:04:38.305Z,20.10
2018-12-19T14:07:05.513Z,20.10
2018-12-19T14:09:31.755Z,20.10
2018-12-19T14:11:58.753Z,20.10
2018-12-19T14:14:24.977Z,20.10
2018-12-19T14:16:51.189Z,20.10
2018-12-19T14:19:17.417Z,20.10
2018-12-19T14:21:43.633Z,20.10
2018-12-19T14:24:09.869Z,20.10
2018-12-19T14:26:36.103Z,20.20
2018-12-19T14:29:02.376Z,20.10
2018-12-19T14:31:28.573Z,20.10
2018-12-19T14:33:55.103Z,20.20
2018-12-19T14:36:21.356Z,20.20
2018-12-19T14:38:47.841Z,20.20
2018-12-19T14:41:14.661Z,20.20
2018-12-19T14:43:41.593Z,20.20
2018-12-19T14:46:08.413Z,20.20
2018-12-19T14:48:35.913Z,20.20
2018-12-19T14:51:03.986Z,20.10
2018-12-19T14:53:30.464Z,20.20
2018-12-19T14:55:57.266Z,20.20
2018-12-19T14:58:23.483Z,20.20
2018-12-19T15:00:49.714Z,20.20
2018-12-19T15:03:15.937Z,20.20
2018-12-19T15:05:42.240Z,20.20
2018-12-19T15:08:08.453Z,20.20
2018-12-19T15:10:34.685Z,20.20
2018-12-19T15:13:00.898Z,20.20
2018-12-19T15:15:28.154Z,20.20
2018-12-19T15:17:54.742Z,20.30
2018-12-19T15:20:21.861Z,20.30
2018-12-19T15:22:48.053Z,20.30
2018-12-19T15:25:14.273Z,20.30
2018-12-19T15:27:41.852Z,20.30
2018-12-19T15:30:09.987Z,20.30
2018-12-19T15:32:38.264Z,20.30
2018-12-19T15:35:05.726Z,20.30
2018-12-19T15:37:32.156Z,20.30
2018-12-19T15:39:59.150Z,20.30
2018-12-19T15:42:25.432Z,20.40
2018-12-19T15:44:52.066Z,20.40
2018-12-19T15:47:19.054Z,20.40
2018-12-19T15:49:46.400Z,20.40
2018-12-19T15:52:12.648Z,20.40
2018-12-19T15:54:39.858Z,20.40
2018-12-19T15:57:07.248Z,20.50
2018-12-19T15:59:33.715Z,20.50
2018-12-19T16:02:00.334Z,20.40
2018-12-19T16:04:26.558Z,20.40
2018-12-19T16:06:52.788Z,20.30
2018-12-19T16:09:18.997Z,20.40
2018-12-19T16:11:45.234Z,20.30
2018-12-19T16:14:11.455Z,20.40
2018-12-19T16:16:38.412Z,20.50
2018-12-19T16:19:04.641Z,20.50
2018-12-19T16:21:31.601Z,20.50
2018-12-19T16:23:58.188Z,20.60
2018-12-19T16:26:25.008Z,20.60
2018-12-19T16:28:51.236Z,20.50
2018-12-19T16:31:17.737Z,20.50
2018-12-19T16:33:43.942Z,20.50
2018-12-19T16:36:10.184Z,20.50
2018-12-19T16:38:36.982Z,20.40
2018-12-19T16:41:03.811Z,20.30
2018-12-19T16:43:30.102Z,20.30
2018-12-19T16:45:56.372Z,20.30
2018-12-19T16:48:23.319Z,20.30
2018-12-19T16:50:50.216Z,20.30
2018-12-19T16:53:16.455Z,20.30
2018-12-19T16:55:42.691Z,20.40
2018-12-19T16:58:09.186Z,20.30
2018-12-19T17:00:35.643Z,20.30
2018-12-19T17:03:02.070Z,20.30
2018-12-19T17:05:28.279Z,20.30
2018-12-19T17:07:55.688Z,20.20
2018-12-19T17:10:22.878Z,20.20
2018-12-19T17:12:52.790Z,20.10
2018-12-19T17:15:17.941Z,20.00
2018-12-19T17:17:44.178Z,20.00
2018-12-19T17:20:10.966Z,20.00
2018-12-19T17:22:37.194Z,20.00
2018-12-19T17:25:03.392Z,19.90
2018-12-19T17:27:29.919Z,19.90
2018-12-19T17:29:56.164Z,19.90
2018-12-19T17:32:22.415Z,19.80
2018-12-19T17:34:48.640Z,19.80
2018-12-19T17:37:14.940Z,19.80
2018-12-19T17:39:41.218Z,19.80
2018-12-19T17:42:07.439Z,19.80
2018-12-19T17:44:33.867Z,19.70
2018-12-19T17:47:00.083Z,19.80
2018-12-19T17:49:26.615Z,19.70
2018-12-19T17:51:52.870Z,19.80
2018-12-19T17:54:19.102Z,19.70
2018-12-19T17:56:46.263Z,19.80
2018-12-19T17:59:13.079Z,19.80
2018-12-19T18:01:39.316Z,19.70
2018-12-19T18:04:05.541Z,19.70
2018-12-19T18:06:32.132Z,19.80
2018-12-19T18:08:58.360Z,19.80
2018-12-19T18:11:24.566Z,19.90
2018-12-19T18:13:51.584Z,19.80
2018-12-19T18:16:18.456Z,19.70
2018-12-19T18:18:45.836Z,19.70
2018-12-19T18:21:12.033Z,19.60
2018-12-19T18:23:38.292Z,19.60
2018-12-19T18:26:04.506Z,19.60
2018-12-19T18:28:30.752Z,19.60
2018-12-19T18:30:56.950Z,19.60
2018-12-19T18:33:23.214Z,19.60
2018-12-19T18:35:49.426Z,19.50
2018-12-19T18:38:16.018Z,19.50
2018-12-19T18:40:42.233Z,19.50
2018-12-19T18:43:12.917Z,19.50
2018-12-19T18:45:37.095Z,19.50
2018-12-19T18:48:03.336Z,19.50
2018-12-19T18:50:29.567Z,19.50
2018-12-19T18:52:56.002Z,19.40
2018-12-19T18:55:22.193Z,19.40
2018-12-19T18:57:48.715Z,19.40
2018-12-19T19:00:15.686Z,19.40
2018-12-19T19:02:41.926Z,19.40
2018-12-19T19:05:08.417Z,19.30
2018-12-19T19:07:34.774Z,19.40
2018-12-19T19:10:02.052Z,19.30
2018-12-19T19:12:28.269Z,19.30
2018-12-19T19:14:54.496Z,19.30
2018-12-19T19:17:20.711Z,19.30
2018-12-19T19:19:46.968Z,19.40
2018-12-19T19:22:13.191Z,19.40
2018-12-19T19:24:39.418Z,19.40
2018-12-19T19:27:05.616Z,19.40
2018-12-19T19:29:33.636Z,19.40
2018-12-19T19:31:59.837Z,19.40
2018-12-19T19:34:26.520Z,19.40
2018-12-19T19:36:52.725Z,19.40
2018-12-19T19:39:18.953Z,19.40
2018-12-19T19:41:45.161Z,19.40
2018-12-19T19:44:11.672Z,19.40
2018-12-19T19:46:37.868Z,19.40
2018-12-19T19:49:04.114Z,19.40
2018-12-19T19:51:30.318Z,19.40
2018-12-19T19:53:56.684Z,19.40
2018-12-19T19:56:23.120Z,19.40
2018-12-19T19:58:49.350Z,19.40
2018-12-19T20:01:15.553Z,19.40
2018-12-19T20:03:41.773Z,19.30
2018-12-19T20:06:08.041Z,19.30
2018-12-19T20:08:34.348Z,19.30
2018-12-19T20:11:00.598Z,19.30
2018-12-19T20:13:33.063Z,19.30
2018-12-19T20:15:55.816Z,19.30
2018-12-19T20:18:22.387Z,19.30
2018-12-19T20:20:48.613Z,19.30
2018-12-19T20:23:14.843Z,19.40
2018-12-19T20:25:41.064Z,19.50
2018-12-19T20:28:08.409Z,19.80
2018-12-19T20:30:36.585Z,20.00
2018-12-19T20:33:03.618Z,20.20
2018-12-19T20:35:30.448Z,20.30
2018-12-19T20:37:57.204Z,20.20
2018-12-19T20:40:23.948Z,20.20
2018-12-19T20:42:51.302Z,20.30
2018-12-19T20:45:18.358Z,20.30
2018-12-19T20:47:45.717Z,20.30
2018-12-19T20:50:12.098Z,20.40
2018-12-19T20:52:38.592Z,20.50
2018-12-19T20:55:05.552Z,20.60
2018-12-19T20:57:32.700Z,20.60
2018-12-19T20:59:59.447Z,20.50
2018-12-19T21:02:26.082Z,20.50
2018-12-19T21:04:52.940Z,20.50
2018-12-19T21:07:20.305Z,20.40
2018-12-19T21:09:47.055Z,20.50
2018-12-19T21:12:13.319Z,20.50
2018-12-19T21:14:39.546Z,20.50
2018-12-19T21:17:06.604Z,20.60
2018-12-19T21:19:33.491Z,20.50
2018-12-19T21:22:00.446Z,20.50
2018-12-19T21:24:27.469Z,20.40
2018-12-19T21:26:54.311Z,20.30
2018-12-19T21:29:20.899Z,20.20
2018-12-19T21:31:47.168Z,20.20
2018-12-19T21:34:13.591Z,19.90
2018-12-19T21:36:39.896Z,19.80
2018-12-19T21:39:06.780Z,19.90
2018-12-19T21:41:33.129Z,19.80
2018-12-19T21:43:59.904Z,19.80
2018-12-19T21:46:27.066Z,19.90
2018-12-19T21:48:53.313Z,19.90
2018-12-19T21:51:19.694Z,19.90
2018-12-19T21:53:45.982Z,19.80
2018-12-19T21:56:12.218Z,19.70
2018-12-19T21:58:38.459Z,19.70
2018-12-19T22:01:04.679Z,19.70
2018-12-19T22:03:31.001Z,19.70
2018-12-19T22:05:57.366Z,19.70
2018-12-19T22:08:23.710Z,19.60
2018-12-19T22:10:50.032Z,19.60
2018-12-19T22:13:16.560Z,19.60
2018-12-19T22:15:44.090Z,19.60
2018-12-19T22:18:10.619Z,19.60
2018-12-19T22:20:37.270Z,19.60
2018-12-19T22:23:03.497Z,19.60
2018-12-19T22:25:30.507Z,19.60
2018-12-19T22:27:56.838Z,19.50
2018-12-19T22:30:23.035Z,19.50
2018-12-19T22:32:49.594Z,19.50
2018-12-19T22:35:15.802Z,19.50
2018-12-19T22:37:42.089Z,19.50
2018-12-19T22:40:08.449Z,19.50
2018-12-19T22:42:34.934Z,19.40
2018-12-19T22:45:01.163Z,19.40
2018-12-19T22:47:28.197Z,19.40
2018-12-19T22:49:54.410Z,19.40
2018-12-19T22:52:20.681Z,19.40
2018-12-19T22:54:47.126Z,19.40
2018-12-19T22:57:13.541Z,19.40
2018-12-19T22:59:39.902Z,19.30
2018-12-19T23:02:06.209Z,19.30
2018-12-19T23:04:32.426Z,19.30
2018-12-19T23:06:58.653Z,19.30
2018-12-19T23:09:24.857Z,19.30
2018-12-19T23:11:52.167Z,19.30
2018-12-19T23:14:18.368Z,19.30
2018-12-19T23:16:44.661Z,19.30
2018-12-19T23:19:11.044Z,19.30
2018-12-19T23:21:37.566Z,19.30
